createdAt,value
2019-06-07T00:01:09.645Z,10.85
2019-06-07T00:03:40.324Z,9.85
2019-06-07T00:06:15.098Z,8.05
2019-06-07T00:08:43.543Z,9.75
2019-06-07T00:11:17.783Z,8.20
2019-06-07T00:13:46.078Z,8.58
2019-06-07T00:16:20.847Z,9.05
2019-06-07T00:18:48.599Z,7.42
2019-06-07T00:21:20.469Z,8.55
2019-06-07T00:23:51.200Z,10.68
2019-06-07T00:26:21.691Z,8.70
2019-06-07T00:28:52.071Z,10.15
2019-06-07T00:31:24.666Z,9.73
2019-06-07T00:33:54.569Z,9.25
2019-06-07T00:36:24.980Z,9.40
2019-06-07T00:38:55.305Z,10.08
2019-06-07T00:41:25.722Z,10.35
2019-06-07T00:43:56.125Z,10.30
2019-06-07T00:46:26.620Z,8.00
2019-06-07T00:48:56.974Z,8.28
2019-06-07T00:51:27.367Z,9.90
2019-06-07T00:53:57.837Z,8.53
2019-06-07T00:56:28.405Z,8.13
2019-06-07T00:59:10.678Z,8.85
2019-06-07T01:01:30.861Z,7.75
2019-06-07T01:04:01.228Z,11.28
2019-06-07T01:06:31.624Z,8.75
2019-06-07T01:09:01.975Z,10.00
2019-06-07T01:11:32.457Z,9.88
2019-06-07T01:14:02.806Z,9.70
2019-06-07T01:16:55.329Z,9.98
2019-06-07T01:19:05.335Z,10.13
2019-06-07T01:21:35.815Z,9.75
2019-06-07T01:24:11.991Z,10.40
2019-06-07T01:26:38.324Z,9.25
2019-06-07T01:29:09.354Z,10.18
2019-06-07T01:31:39.861Z,7.78
2019-06-07T01:34:10.224Z,9.35
2019-06-07T01:36:40.601Z,9.00
2019-06-07T01:39:10.948Z,8.50
2019-06-07T01:41:41.363Z,12.58
2019-06-07T01:44:11.790Z,9.23
2019-06-07T01:46:42.186Z,8.25
2019-06-07T01:49:12.627Z,11.45
2019-06-07T01:51:43.117Z,8.68
2019-06-07T01:54:49.472Z,11.50
2019-06-07T01:56:45.635Z,9.58
2019-06-07T01:59:17.664Z,11.40
2019-06-07T02:01:48.359Z,9.70
2019-06-07T02:04:21.575Z,9.38
2019-06-07T02:06:50.897Z,8.95
2019-06-07T02:09:23.364Z,9.15
2019-06-07T02:11:53.447Z,9.80
2019-06-07T02:14:27.353Z,9.80
2019-06-07T02:16:55.984Z,7.90
2019-06-07T02:19:27.470Z,9.18
2019-06-07T02:21:58.514Z,10.95
2019-06-07T02:24:32.388Z,8.93
2019-06-07T02:27:01.032Z,9.58
2019-06-07T02:29:33.426Z,8.58
2019-06-07T02:32:04.762Z,8.63
2019-06-07T02:34:38.562Z,10.08
2019-06-07T02:37:07.226Z,10.10
2019-06-07T02:39:40.829Z,7.67
2019-06-07T02:42:09.699Z,9.83
2019-06-07T02:44:40.538Z,6.80
2019-06-07T02:47:11.160Z,6.58
2019-06-07T02:49:42.341Z,7.05
2019-06-07T02:52:13.686Z,7.65
2019-06-07T02:54:44.060Z,7.75
2019-06-07T02:57:14.646Z,11.48
2019-06-07T03:00:07.109Z,8.80
2019-06-07T03:02:17.202Z,18.25
2019-06-07T03:04:47.650Z,9.03
2019-06-07T03:07:18.058Z,9.88
2019-06-07T03:09:48.507Z,9.90
2019-06-07T03:12:19.161Z,9.68
2019-06-07T03:14:49.519Z,10.53
2019-06-07T03:17:22.636Z,10.70
2019-06-07T03:20:01.171Z,10.43
2019-06-07T03:22:35.084Z,10.13
2019-06-07T03:25:05.886Z,10.32
2019-06-07T03:27:48.295Z,10.48
2019-06-07T03:30:35.889Z,11.63
2019-06-07T03:32:47.182Z,12.60
2019-06-07T03:35:13.924Z,13.32
2019-06-07T03:37:44.405Z,10.80
2019-06-07T03:40:14.762Z,13.13
2019-06-07T03:42:45.161Z,12.85
2019-06-07T03:45:15.601Z,12.43
2019-06-07T03:47:46.036Z,15.43
2019-06-07T03:50:16.466Z,11.57
2019-06-07T03:52:46.839Z,12.07
2019-06-07T03:55:17.703Z,11.12
2019-06-07T03:58:30.143Z,13.00
2019-06-07T04:00:20.170Z,14.63
2019-06-07T04:02:50.691Z,15.25
2019-06-07T04:05:21.125Z,12.18
2019-06-07T04:07:51.548Z,10.60
2019-06-07T04:10:45.380Z,14.75
2019-06-07T04:12:54.393Z,12.75
2019-06-07T04:15:24.968Z,11.12
2019-06-07T04:18:01.728Z,18.05
2019-06-07T04:20:29.472Z,12.90
2019-06-07T04:23:00.356Z,10.80
2019-06-07T04:25:33.871Z,13.93
2019-06-07T04:28:03.123Z,15.88
2019-06-07T04:30:41.970Z,14.20
2019-06-07T04:33:13.690Z,14.85
2019-06-07T04:35:45.247Z,14.33
2019-06-07T04:38:15.955Z,14.43
2019-06-07T04:40:47.124Z,11.85
2019-06-07T04:43:17.771Z,12.60
2019-06-07T04:45:51.445Z,12.58
2019-06-07T04:48:22.307Z,14.83
2019-06-07T04:50:52.658Z,15.68
2019-06-07T04:53:23.136Z,13.83
2019-06-07T04:55:53.666Z,14.53
2019-06-07T04:58:24.083Z,20.45
2019-06-07T05:01:02.589Z,12.60
2019-06-07T05:03:26.715Z,15.50
2019-06-07T05:05:57.080Z,14.35
2019-06-07T05:08:29.983Z,12.18
2019-06-07T05:10:59.558Z,13.75
2019-06-07T05:13:31.419Z,12.68
2019-06-07T05:16:02.013Z,13.32
2019-06-07T05:18:33.679Z,14.20
2019-06-07T05:21:04.553Z,12.85
2019-06-07T05:24:05.922Z,11.93
2019-06-07T05:26:07.107Z,13.58
2019-06-07T05:28:40.626Z,14.43
2019-06-07T05:31:09.917Z,11.12
2019-06-07T05:33:41.253Z,14.00
2019-06-07T05:36:13.182Z,12.30
2019-06-07T05:38:44.903Z,14.63
2019-06-07T05:41:16.207Z,14.07
2019-06-07T05:44:00.278Z,12.98
2019-06-07T05:46:21.344Z,14.53
2019-06-07T05:48:51.780Z,13.98
2019-06-07T05:51:22.276Z,14.40
2019-06-07T05:53:52.772Z,14.78
2019-06-07T05:56:23.172Z,14.83
2019-06-07T05:58:53.570Z,19.95
2019-06-07T06:01:43.165Z,14.83
2019-06-07T06:03:56.176Z,15.50
2019-06-07T06:06:26.624Z,18.35
2019-06-07T06:09:12.997Z,15.03
2019-06-07T06:11:43.290Z,14.60
2019-06-07T06:14:07.299Z,14.65
2019-06-07T06:16:34.600Z,12.98
2019-06-07T06:19:05.152Z,17.15
2019-06-07T06:21:36.185Z,15.32
2019-06-07T06:24:06.724Z,12.53
2019-06-07T06:26:45.446Z,15.30
2019-06-07T06:29:09.199Z,13.18
2019-06-07T06:31:49.214Z,13.05
2019-06-07T06:34:11.841Z,13.90
2019-06-07T06:36:44.604Z,16.52
2019-06-07T06:39:14.484Z,12.68
2019-06-07T06:41:57.514Z,10.03
2019-06-07T06:44:17.095Z,14.25
2019-06-07T06:46:57.051Z,15.03
2019-06-07T06:49:19.939Z,13.35
2019-06-07T06:51:53.443Z,14.15
2019-06-07T06:54:40.105Z,10.43
2019-06-07T06:57:17.162Z,11.10
2019-06-07T06:59:38.837Z,17.00
2019-06-07T07:01:59.004Z,14.33
2019-06-07T07:04:29.576Z,13.10
2019-06-07T07:07:00.024Z,10.40
2019-06-07T07:09:30.655Z,11.20
2019-06-07T07:12:12.230Z,12.73
2019-06-07T07:14:33.500Z,10.85
2019-06-07T07:17:04.481Z,13.80
2019-06-07T07:19:34.922Z,14.00
2019-06-07T07:22:05.391Z,12.68
2019-06-07T07:24:36.010Z,12.95
2019-06-07T07:27:06.537Z,13.48
2019-06-07T07:29:38.039Z,15.80
2019-06-07T07:32:09.072Z,12.30
2019-06-07T07:34:41.255Z,9.53
2019-06-07T07:37:11.717Z,10.48
2019-06-07T07:39:45.252Z,10.60
2019-06-07T07:42:21.117Z,9.58
2019-06-07T07:44:48.723Z,11.88
2019-06-07T07:47:18.848Z,11.55
2019-06-07T07:49:52.998Z,8.48
2019-06-07T07:52:21.975Z,8.65
2019-06-07T07:54:56.270Z,8.50
2019-06-07T07:57:24.517Z,8.10
2019-06-07T08:00:25.290Z,7.33
2019-06-07T08:02:26.984Z,9.15
2019-06-07T08:07:30.243Z,8.10
2019-06-07T08:10:03.811Z,11.73
2019-06-07T08:12:55.623Z,10.13
2019-06-07T08:15:08.405Z,8.38
2019-06-07T08:17:38.761Z,7.85
2019-06-07T08:20:11.090Z,8.20
2019-06-07T08:22:41.564Z,10.98
2019-06-07T08:25:13.519Z,9.85
2019-06-07T08:27:43.885Z,7.70
2019-06-07T08:30:47.345Z,7.80
2019-06-07T08:32:54.604Z,8.40
2019-06-07T08:36:02.935Z,7.42
2019-06-07T08:38:25.307Z,8.10
2019-06-07T08:40:26.653Z,6.75
2019-06-07T08:43:15.073Z,8.18
2019-06-07T08:45:29.508Z,8.50
2019-06-07T08:48:05.392Z,7.40
2019-06-07T08:50:32.439Z,7.47
2019-06-07T08:53:11.460Z,10.58
2019-06-07T08:55:35.000Z,8.63
2019-06-07T08:58:08.621Z,7.75
2019-06-07T09:00:46.958Z,7.12
2019-06-07T09:03:09.758Z,7.03
2019-06-07T09:05:40.150Z,8.45
2019-06-07T09:08:29.258Z,8.33
2019-06-07T09:10:42.578Z,8.45
2019-06-07T09:13:13.069Z,7.53
2019-06-07T09:15:43.540Z,6.62
2019-06-07T09:20:49.052Z,7.87
2019-06-07T09:23:19.486Z,8.48
2019-06-07T09:26:02.584Z,7.05
2019-06-07T09:28:21.986Z,7.67
2019-06-07T09:30:52.368Z,6.72
2019-06-07T09:33:22.790Z,8.25
2019-06-07T09:35:53.244Z,7.67
2019-06-07T09:38:26.106Z,7.70
2019-06-07T09:40:57.500Z,6.47
2019-06-07T09:44:00.745Z,8.68
2019-06-07T09:46:04.651Z,7.67
2019-06-07T09:49:12.328Z,6.97
2019-06-07T09:51:17.157Z,6.65
2019-06-07T09:53:37.198Z,6.75
2019-06-07T09:56:11.726Z,7.03
2019-06-07T09:58:55.497Z,8.48
2019-06-07T10:01:13.666Z,6.70
2019-06-07T10:03:44.519Z,7.15
2019-06-07T10:06:15.017Z,8.38
2019-06-07T10:11:17.569Z,6.70
2019-06-07T10:13:47.994Z,9.50
2019-06-07T10:16:18.381Z,5.80
2019-06-07T10:18:48.867Z,5.97
2019-06-07T10:21:19.420Z,5.83
2019-06-07T10:23:49.827Z,10.38
2019-06-07T10:26:20.232Z,6.25
2019-06-07T10:28:53.438Z,7.12
2019-06-07T10:31:22.763Z,6.40
2019-06-07T10:33:54.122Z,7.55
2019-06-07T10:36:24.757Z,5.53
2019-06-07T10:38:55.126Z,5.35
2019-06-07T10:41:25.536Z,6.40
2019-06-07T10:43:55.983Z,5.83
2019-06-07T10:46:26.471Z,5.90
2019-06-07T10:48:56.923Z,5.87
2019-06-07T10:51:27.478Z,5.60
2019-06-07T10:53:57.914Z,5.30
2019-06-07T10:56:28.397Z,6.60
2019-06-07T10:58:58.826Z,6.75
2019-06-07T11:01:29.313Z,7.45
2019-06-07T11:03:59.731Z,6.75
2019-06-07T11:06:30.405Z,5.80
2019-06-07T11:09:00.757Z,5.95
2019-06-07T11:11:31.204Z,6.42
2019-06-07T11:14:01.563Z,8.60
2019-06-07T11:16:31.968Z,6.70
2019-06-07T11:19:02.387Z,5.67
2019-06-07T11:21:32.854Z,6.97
2019-06-07T11:24:03.317Z,8.75
2019-06-07T11:26:33.774Z,5.42
2019-06-07T11:29:06.669Z,5.75
2019-06-07T11:31:37.270Z,5.75
2019-06-07T11:34:08.362Z,7.30
2019-06-07T11:36:38.923Z,5.45
2019-06-07T11:39:11.091Z,5.42
2019-06-07T11:41:42.012Z,5.20
2019-06-07T11:44:12.970Z,4.70
2019-06-07T11:46:43.751Z,4.17
2019-06-07T11:49:19.831Z,4.85
2019-06-07T11:51:46.352Z,5.53
2019-06-07T11:54:20.305Z,4.67
2019-06-07T11:56:49.034Z,4.33
2019-06-07T11:59:19.635Z,4.53
2019-06-07T12:01:50.114Z,5.42
2019-06-07T12:04:32.493Z,4.47
2019-06-07T12:06:52.601Z,5.83
2019-06-07T12:09:23.035Z,4.53
2019-06-07T12:11:53.466Z,3.90
2019-06-07T12:14:23.885Z,5.10
2019-06-07T12:16:54.258Z,6.12
2019-06-07T12:19:24.646Z,5.40
2019-06-07T12:21:55.063Z,4.67
2019-06-07T12:24:25.485Z,3.75
2019-06-07T12:26:56.004Z,3.75
2019-06-07T12:29:26.338Z,4.87
2019-06-07T12:31:56.819Z,4.87
2019-06-07T12:34:27.870Z,7.08
2019-06-07T12:36:58.283Z,7.50
2019-06-07T12:39:28.723Z,6.47
2019-06-07T12:41:59.142Z,5.37
2019-06-07T12:44:29.605Z,5.28
2019-06-07T12:46:59.952Z,6.83
2019-06-07T12:49:30.575Z,5.55
2019-06-07T12:52:01.082Z,4.78
2019-06-07T12:54:31.453Z,4.45
2019-06-07T12:57:01.873Z,4.37
2019-06-07T12:59:32.275Z,4.10
2019-06-07T13:02:02.796Z,4.25
2019-06-07T13:04:33.334Z,4.35
2019-06-07T13:07:03.861Z,7.58
2019-06-07T13:09:36.124Z,5.10
2019-06-07T13:12:06.425Z,3.67
2019-06-07T13:14:36.811Z,4.30
2019-06-07T13:17:07.414Z,5.28
2019-06-07T13:19:37.910Z,6.55
2019-06-07T13:22:08.449Z,4.50
2019-06-07T13:24:38.919Z,5.12
2019-06-07T13:27:09.913Z,8.55
2019-06-07T13:29:40.426Z,4.92
2019-06-07T13:32:10.825Z,4.95
2019-06-07T13:34:41.313Z,6.05
2019-06-07T13:37:11.719Z,4.87
2019-06-07T13:39:42.090Z,5.12
2019-06-07T13:42:12.630Z,4.05
2019-06-07T13:44:43.130Z,8.18
2019-06-07T13:47:13.515Z,5.95
2019-06-07T13:49:44.025Z,4.60
2019-06-07T13:52:14.582Z,4.67
2019-06-07T13:54:45.009Z,6.35
2019-06-07T13:57:15.967Z,5.30
2019-06-07T13:59:46.487Z,4.95
2019-06-07T14:02:18.417Z,3.40
2019-06-07T14:04:49.066Z,3.60
2019-06-07T14:07:21.183Z,3.75
2019-06-07T14:09:51.764Z,3.95
2019-06-07T14:12:24.031Z,3.98
2019-06-07T14:14:54.703Z,3.55
2019-06-07T14:17:25.372Z,3.77
2019-06-07T14:19:55.852Z,4.00
2019-06-07T14:22:26.883Z,4.65
2019-06-07T14:24:57.345Z,5.35
2019-06-07T14:27:27.848Z,3.80
2019-06-07T14:29:58.303Z,4.87
2019-06-07T14:32:28.825Z,3.98
2019-06-07T14:34:59.301Z,4.72
2019-06-07T14:37:30.977Z,8.35
2019-06-07T14:40:01.578Z,3.90
2019-06-07T14:42:33.355Z,3.98
2019-06-07T14:45:06.350Z,7.47
2019-06-07T14:47:37.010Z,5.40
2019-06-07T14:50:09.592Z,3.90
2019-06-07T14:52:40.020Z,4.17
2019-06-07T14:55:10.398Z,5.12
2019-06-07T14:57:40.817Z,4.03
2019-06-07T15:00:13.510Z,6.40
2019-06-07T15:02:44.015Z,3.80
2019-06-07T15:05:15.169Z,6.28
2019-06-07T15:07:45.954Z,5.40
2019-06-07T15:10:16.470Z,4.87
2019-06-07T15:12:47.001Z,4.95
2019-06-07T15:15:17.408Z,4.08
2019-06-07T15:17:47.909Z,3.92
2019-06-07T15:20:18.279Z,5.58
2019-06-07T15:22:48.678Z,5.15
2019-06-07T15:25:20.079Z,8.23
2019-06-07T15:27:50.569Z,4.33
2019-06-07T15:30:21.211Z,4.03
2019-06-07T15:32:51.651Z,5.15
2019-06-07T15:35:22.076Z,4.55
2019-06-07T15:37:52.597Z,4.67
2019-06-07T15:40:23.225Z,4.12
2019-06-07T15:42:53.617Z,4.50
2019-06-07T15:45:23.968Z,4.05
2019-06-07T15:47:54.933Z,4.53
2019-06-07T15:50:28.624Z,4.85
2019-06-07T15:52:57.468Z,5.78
2019-06-07T15:55:27.927Z,4.17
2019-06-07T15:57:58.393Z,4.87
2019-06-07T16:00:28.791Z,4.65
2019-06-07T16:02:59.276Z,5.83
2019-06-07T16:05:31.938Z,5.17
2019-06-07T16:08:02.392Z,5.35
2019-06-07T16:10:32.763Z,6.22
2019-06-07T16:13:03.402Z,5.75
2019-06-07T16:15:34.740Z,6.65
2019-06-07T16:18:05.876Z,7.30
2019-06-07T16:20:37.358Z,7.78
2019-06-07T16:23:07.908Z,10.25
2019-06-07T16:25:38.364Z,11.75
2019-06-07T16:28:08.759Z,8.63
2019-06-07T16:30:40.507Z,8.18
2019-06-07T16:33:11.071Z,8.38
2019-06-07T16:35:41.523Z,10.50
2019-06-07T16:38:12.057Z,10.25
2019-06-07T16:40:42.590Z,9.70
2019-06-07T16:43:17.779Z,12.35
2019-06-07T16:45:45.073Z,10.25
2019-06-07T16:48:15.532Z,9.78
2019-06-07T16:50:45.907Z,10.50
2019-06-07T16:53:16.890Z,8.73
2019-06-07T16:55:47.343Z,11.05
2019-06-07T16:58:17.843Z,8.43
2019-06-07T17:00:49.566Z,8.50
2019-06-07T17:03:19.954Z,10.82
2019-06-07T17:05:50.706Z,10.45
2019-06-07T17:08:21.170Z,9.25
2019-06-07T17:10:51.610Z,8.10
2019-06-07T17:13:32.848Z,8.03
2019-06-07T17:15:54.156Z,7.97
2019-06-07T17:18:24.678Z,8.78
2019-06-07T17:20:55.073Z,8.08
2019-06-07T17:23:25.477Z,8.43
2019-06-07T17:25:55.938Z,7.87
2019-06-07T17:28:26.320Z,10.05
2019-06-07T17:30:56.818Z,9.63
2019-06-07T17:33:28.396Z,10.65
2019-06-07T17:35:58.814Z,7.83
2019-06-07T17:38:29.472Z,7.53
2019-06-07T17:41:00.130Z,8.48
2019-06-07T17:43:30.914Z,10.88
2019-06-07T17:46:01.784Z,10.70
2019-06-07T17:48:32.529Z,9.28
2019-06-07T17:51:02.905Z,11.35
2019-06-07T17:53:33.374Z,7.92
2019-06-07T17:56:03.760Z,9.18
2019-06-07T17:58:34.188Z,10.93
2019-06-07T18:01:04.629Z,9.08
2019-06-07T18:03:35.091Z,9.00
2019-06-07T18:06:05.661Z,9.73
2019-06-07T18:08:36.086Z,10.32
2019-06-07T18:11:06.548Z,9.25
2019-06-07T18:13:36.968Z,13.30
2019-06-07T18:16:07.556Z,8.48
2019-06-07T18:18:38.252Z,11.83
2019-06-07T18:21:08.702Z,14.38
2019-06-07T18:23:39.190Z,10.18
2019-06-07T18:26:09.887Z,10.38
2019-06-07T18:28:40.580Z,8.95
2019-06-07T18:31:11.009Z,10.53
2019-06-07T18:33:41.435Z,9.35
2019-06-07T18:36:11.935Z,9.28
2019-06-07T18:38:42.379Z,8.73
2019-06-07T18:41:12.787Z,13.78
2019-06-07T18:43:43.192Z,9.33
2019-06-07T18:46:13.665Z,9.75
2019-06-07T18:48:44.067Z,10.25
2019-06-07T18:51:14.639Z,8.85
2019-06-07T18:53:45.196Z,7.90
2019-06-07T18:56:16.108Z,8.18
2019-06-07T18:58:47.133Z,9.50
2019-06-07T19:01:17.650Z,8.43
2019-06-07T19:03:49.116Z,8.73
2019-06-07T19:06:20.287Z,10.28
2019-06-07T19:08:54.770Z,13.53
2019-06-07T19:11:22.990Z,12.43
2019-06-07T19:13:53.406Z,11.63
2019-06-07T19:16:24.361Z,9.63
2019-06-07T19:18:55.870Z,8.68
2019-06-07T19:21:26.424Z,8.83
2019-06-07T19:23:58.048Z,10.30
2019-06-07T19:26:28.638Z,10.75
2019-06-07T19:28:59.094Z,9.63
2019-06-07T19:31:29.510Z,10.30
2019-06-07T19:34:01.271Z,11.28
2019-06-07T19:36:31.902Z,9.98
2019-06-07T19:39:02.404Z,10.82
2019-06-07T19:41:32.857Z,10.50
2019-06-07T19:44:03.316Z,13.88
2019-06-07T19:46:33.688Z,14.55
2019-06-07T19:49:04.270Z,14.07
2019-06-07T19:51:34.693Z,13.78
2019-06-07T19:54:05.201Z,19.62
2019-06-07T19:56:35.663Z,11.70
2019-06-07T19:59:06.095Z,14.90
2019-06-07T20:01:36.621Z,11.55
2019-06-07T20:04:07.133Z,13.70
2019-06-07T20:06:37.520Z,14.28
2019-06-07T20:09:08.392Z,16.57
2019-06-07T20:11:38.868Z,13.35
2019-06-07T20:14:09.363Z,12.23
2019-06-07T20:16:39.870Z,12.90
2019-06-07T20:19:10.330Z,13.35
2019-06-07T20:21:40.822Z,12.15
2019-06-07T20:24:24.808Z,14.90
2019-06-07T20:26:43.475Z,16.23
2019-06-07T20:29:25.338Z,14.38
2019-06-07T20:31:46.197Z,16.30
2019-06-07T20:34:16.625Z,15.88
2019-06-07T20:36:47.133Z,15.13
2019-06-07T20:39:18.147Z,14.15
2019-06-07T20:41:48.600Z,14.03
2019-06-07T20:44:19.285Z,13.25
2019-06-07T20:46:49.754Z,14.40
2019-06-07T20:49:20.164Z,14.07
2019-06-07T20:51:50.520Z,15.28
2019-06-07T20:54:20.964Z,13.95
2019-06-07T20:56:51.351Z,14.15
2019-06-07T20:59:22.553Z,19.52
2019-06-07T21:01:52.938Z,16.30
2019-06-07T21:04:23.427Z,14.78
2019-06-07T21:06:53.890Z,14.35
2019-06-07T21:09:24.302Z,18.07
2019-06-07T21:11:55.169Z,15.80
2019-06-07T21:14:25.773Z,16.82
2019-06-07T21:16:56.168Z,15.25
2019-06-07T21:19:26.680Z,16.67
2019-06-07T21:21:57.154Z,17.15
2019-06-07T21:24:27.636Z,16.10
2019-06-07T21:26:58.021Z,18.05
2019-06-07T21:29:28.521Z,18.32
2019-06-07T21:31:58.897Z,17.10
2019-06-07T21:34:29.389Z,19.70
2019-06-07T21:37:01.685Z,21.57
2019-06-07T21:39:32.476Z,20.90
2019-06-07T21:42:04.222Z,21.55
2019-06-07T21:44:34.723Z,23.60
2019-06-07T21:47:06.377Z,21.25
2019-06-07T21:49:36.954Z,24.85
2019-06-07T21:52:08.674Z,24.75
2019-06-07T21:54:39.207Z,26.68
2019-06-07T21:57:09.624Z,27.25
2019-06-07T21:59:40.118Z,23.22
2019-06-07T22:02:11.629Z,21.85
2019-06-07T22:04:42.068Z,19.82
2019-06-07T22:07:13.591Z,20.15
2019-06-07T22:09:44.189Z,21.95
2019-06-07T22:12:14.633Z,23.32
2019-06-07T22:14:45.140Z,22.87
2019-06-07T22:17:15.531Z,22.20
2019-06-07T22:19:45.970Z,23.95
2019-06-07T22:22:16.342Z,22.50
2019-06-07T22:24:46.770Z,27.32
2019-06-07T22:27:17.729Z,25.15
2019-06-07T22:29:48.244Z,25.97
2019-06-07T22:32:19.169Z,26.57
2019-06-07T22:34:49.605Z,23.55
2019-06-07T22:37:23.400Z,23.35
2019-06-07T22:39:52.346Z,22.05
2019-06-07T22:42:22.755Z,23.55
2019-06-07T22:44:53.903Z,20.85
2019-06-07T22:47:24.541Z,24.25
2019-06-07T22:49:56.228Z,22.37
2019-06-07T22:52:26.679Z,23.10
2019-06-07T22:54:57.120Z,23.40
2019-06-07T22:57:29.272Z,22.40
2019-06-07T22:59:59.783Z,22.55
2019-06-07T23:02:30.234Z,20.62
2019-06-07T23:05:04.618Z,23.30
2019-06-07T23:07:32.904Z,23.20
2019-06-07T23:10:04.765Z,23.80
2019-06-07T23:12:35.203Z,20.62
2019-06-07T23:15:09.308Z,24.07
2019-06-07T23:17:39.838Z,23.60
2019-06-07T23:20:11.719Z,21.33
2019-06-07T23:22:42.340Z,25.20
2019-06-07T23:25:15.040Z,24.43
2019-06-07T23:27:44.966Z,23.07
2019-06-07T23:30:16.562Z,21.30
2019-06-07T23:32:47.244Z,26.42
2019-06-07T23:35:18.969Z,27.22
2019-06-07T23:37:49.577Z,28.95
2019-06-07T23:40:21.559Z,27.87
2019-06-07T23:42:52.159Z,25.25
2019-06-07T23:45:22.806Z,27.22
2019-06-07T23:47:53.218Z,25.80
2019-06-07T23:50:23.612Z,28.27
2019-06-07T23:52:54.080Z,27.90
2019-06-07T23:55:24.569Z,25.02
2019-06-07T23:57:55.038Z,25.40
